logo tempoitalia

Diretta Meteo Uralsk, Kazakhstanlunedì 31 agosto ore 10:00

Mappa
Sereno 16 °C Sereno 24 Ore: T.min 3 T.max 22
Ponente Nord Km/h 7.2 Punto di rugiada: 2 °C Umidità: 38% Visibilità: 10 Km
Il sole sorge alle: 06:46 Il sole tramonta alle: 20:24
31 Agosto 2026 10:00 tempo osservato: Sereno Sereno 16 38 1025 vento: Nord N 7.2
31 Agosto 2026 09:30 tempo osservato: Sereno Sereno 14 44 1025 vento: Nord N 7.2
31 Agosto 2026 09:00 tempo osservato: Sereno Sereno 12 46 1025 vento: Nord N 3.6
31 Agosto 2026 08:30 tempo osservato: Sereno Sereno 12 46 1025 vento: Nord N 0
31 Agosto 2026 08:00 tempo osservato: Sereno Sereno 8 65 1025 vento: Nord N 0
31 Agosto 2026 07:30 tempo osservato: Sereno Sereno 4 75 1024 vento: Nord N 3.6
31 Agosto 2026 07:00 tempo osservato: Sereno Sereno 3 69 1024 vento: Nord N 3.6
31 Agosto 2026 06:30 tempo osservato: Sereno Sereno 4 75 1024 vento: Nord N 7.2
31 Agosto 2026 06:00 tempo osservato: Sereno Sereno 4 80 1024 vento: Nord N 0
31 Agosto 2026 05:30 tempo osservato: Sereno Sereno 3 74 1024 vento: Nord N 0
31 Agosto 2026 05:00 tempo osservato: Sereno Sereno 6 70 1024 vento: Nord N 0
31 Agosto 2026 04:30 tempo osservato: Sereno Sereno 5 75 1024 vento: Nord N 0
31 Agosto 2026 04:00 tempo osservato: Sereno Sereno 6 70 1024 vento: Nord N 3.6
31 Agosto 2026 03:00 tempo osservato: Sereno Sereno 6 75 1024 vento: Nord N 3.6
31 Agosto 2026 02:30 tempo osservato: Sereno Sereno 6 70 1023 vento: Nord N 10.8
31 Agosto 2026 02:00 tempo osservato: Sereno Sereno 6 75 1023 vento: Nord N 7.2
31 Agosto 2026 01:30 tempo osservato: Sereno Sereno 7 56 1023 vento: Nord N 7.2
31 Agosto 2026 01:00 tempo osservato: Sereno Sereno 8 45 1023 vento: Nord N 7.2
31 Agosto 2026 00:30 tempo osservato: Sereno Sereno 8 45 1023 vento: Nord N 7.2
31 Agosto 2026 00:00 tempo osservato: Sereno Sereno 8 45 1023 vento: Nord N 7.2
30 Agosto 2026 23:30 tempo osservato: Sereno Sereno 10 46 1023 vento: Nord N 7.2
30 Agosto 2026 23:00 tempo osservato: Sereno Sereno 11 46 1023 vento: Nord N 3.6
30 Agosto 2026 22:30 tempo osservato: Sereno Sereno 12 43 1023 vento: Nord N 3.6
30 Agosto 2026 22:00 tempo osservato: Sereno Sereno 12 46 1023 vento: Nord N 7.2
30 Agosto 2026 21:30 tempo osservato: Sereno Sereno 13 37 1022 vento: Nord N 7.2
30 Agosto 2026 21:00 tempo osservato: Sereno Sereno 15 35 1022 vento: Nord N 7.2
30 Agosto 2026 20:30 tempo osservato: Sereno Sereno 16 31 1022 vento: Nord N 7.2
30 Agosto 2026 20:00 tempo osservato: Sereno Sereno 19 27 1022 vento: Nord N/NO 10.8
30 Agosto 2026 19:30 tempo osservato: Sereno Sereno 20 26 1021 vento: Nord NO 14.4
30 Agosto 2026 19:00 tempo osservato: Sereno Sereno 21 22 1021 vento: Nord NO 14.4
30 Agosto 2026 18:30 tempo osservato: Sereno Sereno 22 21 1021 vento: Nord NO 14.4
30 Agosto 2026 18:00 tempo osservato: Sereno Sereno 22 21 1022 vento: Nord O/NO 14.4
30 Agosto 2026 17:30 tempo osservato: Sereno Sereno 22 23 1022 vento: Nord N/NO 18
30 Agosto 2026 17:00 tempo osservato: Sereno Sereno 22 21 1022 vento: Nord N/NO 18
30 Agosto 2026 16:30 tempo osservato: Sereno Sereno 21 22 1022 vento: Nord NO 18
30 Agosto 2026 16:00 tempo osservato: Sereno Sereno 22 21 1022 vento: Nord NO 18
30 Agosto 2026 15:30 tempo osservato: Sereno Sereno 21 24 1022 vento: Nord N/NO 18
30 Agosto 2026 15:00 tempo osservato: Sereno Sereno 21 24 1022 vento: Nord N 18
30 Agosto 2026 14:30 tempo osservato: Sereno Sereno 21 24 1023 vento: Nord N/NO 21.6
30 Agosto 2026 14:00 tempo osservato: Sereno Sereno 20 30 1023 vento: Nord N/NO 14.4
30 Agosto 2026 13:30 tempo osservato: Sereno Sereno 20 28 1023 vento: Nord N 18
30 Agosto 2026 13:00 tempo osservato: Sereno Sereno 19 27 1023 vento: Nord N 18
30 Agosto 2026 12:30 tempo osservato: Sereno Sereno 19 29 1023 vento: Nord N/NO 21.6
30 Agosto 2026 12:00 tempo osservato: Sereno Sereno 19 29 1023 vento: Nord N/NE 10.8
30 Agosto 2026 11:30 tempo osservato: Sereno Sereno 18 31 1023 vento: Nord NO 18
30 Agosto 2026 11:00 tempo osservato: Sereno Sereno 18 36 1024 vento: Nord N 14.4